createdAt,value
2019-04-07T00:01:38.988Z,4.73
2019-04-07T00:04:05.288Z,5.33
2019-04-07T00:06:31.661Z,5.17
2019-04-07T00:08:57.743Z,4.53
2019-04-07T00:11:23.593Z,5.87
2019-04-07T00:13:49.970Z,4.80
2019-04-07T00:16:15.867Z,5.60
2019-04-07T00:18:41.725Z,4.73
2019-04-07T00:21:07.548Z,5.07
2019-04-07T00:23:33.569Z,4.93
2019-04-07T00:26:00.159Z,5.00
2019-04-07T00:28:26.104Z,4.93
2019-04-07T00:30:51.945Z,5.87
2019-04-07T00:33:18.159Z,4.90
2019-04-07T00:35:44.619Z,5.80
2019-04-07T00:38:10.497Z,5.37
2019-04-07T00:40:37.070Z,4.63
2019-04-07T00:43:03.415Z,5.13
2019-04-07T00:45:29.501Z,4.80
2019-04-07T00:47:55.915Z,5.07
2019-04-07T00:50:21.991Z,5.43
2019-04-07T00:52:48.035Z,4.90
2019-04-07T00:55:14.219Z,4.50
2019-04-07T00:57:40.725Z,5.10
2019-04-07T01:00:08.653Z,5.23
2019-04-07T01:02:34.627Z,4.60
2019-04-07T01:05:00.460Z,5.00
2019-04-07T01:07:26.656Z,4.83
2019-04-07T01:09:53.165Z,5.07
2019-04-07T01:12:19.309Z,4.87
2019-04-07T01:14:45.184Z,4.97
2019-04-07T01:17:11.532Z,5.30
2019-04-07T01:19:38.111Z,5.40
2019-04-07T01:22:04.058Z,5.33
2019-04-07T01:24:29.917Z,5.23
2019-04-07T01:26:55.876Z,5.50
2019-04-07T01:29:21.717Z,5.20
2019-04-07T01:31:47.533Z,5.30
2019-04-07T01:34:13.490Z,4.83
2019-04-07T01:36:39.337Z,4.83
2019-04-07T01:39:07.680Z,5.63
2019-04-07T01:41:35.613Z,4.97
2019-04-07T01:44:06.108Z,5.10
2019-04-07T01:46:37.067Z,6.00
2019-04-07T01:49:04.958Z,5.13
2019-04-07T01:51:42.220Z,4.90
2019-04-07T01:54:28.348Z,5.20
2019-04-07T01:57:13.470Z,5.37
2019-04-07T01:59:54.039Z,5.17
2019-04-07T02:02:31.095Z,5.67
2019-04-07T02:05:01.929Z,5.10
2019-04-07T02:07:35.905Z,6.17
2019-04-07T02:10:21.467Z,5.07
2019-04-07T02:13:01.176Z,5.43
2019-04-07T02:15:31.916Z,5.40
2019-04-07T02:18:11.556Z,5.93
2019-04-07T02:20:57.885Z,4.77
2019-04-07T02:23:34.380Z,5.87
2019-04-07T02:26:04.900Z,5.97
2019-04-07T02:28:35.793Z,6.50
2019-04-07T02:31:06.561Z,4.70
2019-04-07T02:33:43.829Z,6.17
2019-04-07T02:36:31.306Z,5.63
2019-04-07T02:39:09.898Z,5.77
2019-04-07T02:41:53.667Z,4.70
2019-04-07T02:44:22.047Z,5.50
2019-04-07T02:46:49.863Z,5.60
2019-04-07T02:49:20.629Z,6.20
2019-04-07T02:51:51.125Z,6.43
2019-04-07T02:54:22.680Z,5.07
2019-04-07T02:56:54.291Z,6.00
2019-04-07T02:59:41.069Z,5.60
2019-04-07T03:02:12.710Z,5.00
2019-04-07T03:04:57.068Z,5.47
2019-04-07T03:07:39.685Z,5.80
2019-04-07T03:10:17.081Z,5.30
2019-04-07T03:12:48.609Z,5.70
2019-04-07T03:15:17.121Z,5.70
2019-04-07T03:18:03.170Z,4.80
2019-04-07T03:20:31.130Z,5.80
2019-04-07T03:23:02.168Z,5.77
2019-04-07T03:25:46.873Z,6.50
2019-04-07T03:28:14.612Z,5.20
2019-04-07T03:30:47.208Z,6.03
2019-04-07T03:33:26.025Z,5.33
2019-04-07T03:36:01.048Z,5.47
2019-04-07T03:38:27.392Z,5.20
2019-04-07T03:40:55.250Z,5.10
2019-04-07T03:43:38.019Z,5.70
2019-04-07T03:46:06.107Z,5.27
2019-04-07T03:48:43.469Z,5.67
2019-04-07T03:51:14.939Z,5.90
2019-04-07T03:53:48.969Z,5.63
2019-04-07T03:56:16.699Z,5.03
2019-04-07T03:58:53.757Z,5.53
2019-04-07T04:01:22.229Z,5.97
2019-04-07T04:04:07.330Z,6.43
2019-04-07T04:06:50.275Z,6.87
2019-04-07T04:09:22.237Z,5.17
2019-04-07T04:12:01.924Z,6.80
2019-04-07T04:14:41.868Z,4.87
2019-04-07T04:17:08.250Z,5.83
2019-04-07T04:19:34.851Z,6.20
2019-04-07T04:22:00.706Z,7.77
2019-04-07T04:24:26.706Z,7.17
2019-04-07T04:26:53.651Z,7.93
2019-04-07T04:29:20.158Z,6.87
2019-04-07T04:31:47.257Z,7.03
2019-04-07T04:34:13.938Z,7.00
2019-04-07T04:36:40.451Z,7.07
2019-04-07T04:39:06.643Z,8.17
2019-04-07T04:41:32.969Z,8.33
2019-04-07T04:44:00.421Z,6.83
2019-04-07T04:46:26.357Z,6.30
2019-04-07T04:48:52.506Z,6.70
2019-04-07T04:51:18.430Z,6.27
2019-04-07T04:53:44.741Z,7.00
2019-04-07T04:56:11.335Z,5.60
2019-04-07T04:58:37.900Z,6.30
2019-04-07T05:01:04.491Z,6.30
2019-04-07T05:03:30.490Z,6.60
2019-04-07T05:05:56.424Z,6.57
2019-04-07T05:08:22.254Z,6.60
2019-04-07T05:10:48.266Z,6.50
2019-04-07T05:13:14.165Z,6.33
2019-04-07T05:15:40.038Z,5.67
2019-04-07T05:18:06.453Z,5.23
2019-04-07T05:20:32.300Z,5.27
2019-04-07T05:22:58.624Z,5.80
2019-04-07T05:25:24.960Z,6.03
2019-04-07T05:27:50.859Z,6.80
2019-04-07T05:30:16.868Z,5.77
2019-04-07T05:32:43.187Z,5.80
2019-04-07T05:35:09.172Z,5.70
2019-04-07T05:37:35.028Z,6.20
2019-04-07T05:40:02.934Z,5.47
2019-04-07T05:42:28.884Z,6.30
2019-04-07T05:44:55.167Z,5.70
2019-04-07T05:47:21.278Z,5.57
2019-04-07T05:49:47.713Z,5.10
2019-04-07T05:52:13.970Z,6.00
2019-04-07T05:54:40.411Z,5.37
2019-04-07T05:57:06.243Z,5.53
2019-04-07T05:59:32.109Z,5.57
2019-04-07T06:02:00.725Z,6.10
2019-04-07T06:04:26.057Z,5.70
2019-04-07T06:06:54.998Z,4.97
2019-04-07T06:09:20.787Z,5.43
2019-04-07T06:11:46.965Z,5.60
2019-04-07T06:14:15.091Z,6.00
2019-04-07T06:16:41.671Z,6.03
2019-04-07T06:19:08.096Z,6.87
2019-04-07T06:21:34.851Z,5.00
2019-04-07T06:24:00.838Z,5.53
2019-04-07T06:26:26.668Z,5.30
2019-04-07T06:28:57.390Z,5.50
2019-04-07T06:31:21.557Z,5.10
2019-04-07T06:33:47.979Z,5.57
2019-04-07T06:36:17.543Z,6.17
2019-04-07T06:38:46.501Z,5.43
2019-04-07T06:41:09.343Z,5.87
2019-04-07T06:43:40.025Z,5.17
2019-04-07T06:46:26.088Z,4.77
2019-04-07T06:49:11.293Z,5.60
2019-04-07T06:51:50.198Z,5.93
2019-04-07T06:54:20.513Z,4.40
2019-04-07T06:56:51.178Z,5.80
2019-04-07T06:59:36.093Z,5.60
2019-04-07T07:02:20.814Z,5.37
2019-04-07T07:04:48.637Z,5.47
2019-04-07T07:07:22.684Z,5.43
2019-04-07T07:09:54.798Z,5.60
2019-04-07T07:12:30.932Z,5.90
2019-04-07T07:15:09.154Z,6.20
2019-04-07T07:17:43.083Z,5.60
2019-04-07T07:20:11.269Z,5.57
2019-04-07T07:22:53.994Z,5.83
2019-04-07T07:25:20.429Z,5.10
2019-04-07T07:27:46.321Z,5.47
2019-04-07T07:30:12.249Z,5.80
2019-04-07T07:32:38.942Z,5.90
2019-04-07T07:35:05.585Z,5.20
2019-04-07T07:37:32.054Z,5.77
2019-04-07T07:39:57.971Z,5.27
2019-04-07T07:42:24.384Z,6.13
2019-04-07T07:44:50.417Z,6.10
2019-04-07T07:47:17.631Z,6.90
2019-04-07T07:49:44.391Z,5.30
2019-04-07T07:52:10.422Z,6.20
2019-04-07T07:54:36.792Z,6.13
2019-04-07T07:57:02.822Z,6.27
2019-04-07T07:59:33.551Z,5.93
2019-04-07T08:01:56.503Z,6.40
2019-04-07T08:04:24.908Z,5.80
2019-04-07T08:06:50.229Z,4.97
2019-04-07T08:09:21.436Z,6.00
2019-04-07T08:11:44.537Z,5.80
2019-04-07T08:14:15.162Z,5.77
2019-04-07T08:16:39.007Z,5.47
2019-04-07T08:19:08.470Z,5.70
2019-04-07T08:21:33.699Z,4.70
2019-04-07T08:24:01.347Z,5.40
2019-04-07T08:26:27.839Z,6.33
2019-04-07T08:28:54.695Z,4.90
2019-04-07T08:31:21.555Z,5.80
2019-04-07T08:33:50.308Z,5.33
2019-04-07T08:36:15.336Z,5.97
2019-04-07T08:38:41.215Z,5.73
2019-04-07T08:41:10.175Z,5.43
2019-04-07T08:43:35.171Z,5.97
2019-04-07T08:46:04.374Z,5.40
2019-04-07T08:48:28.969Z,5.20
2019-04-07T08:50:57.270Z,5.90
2019-04-07T08:53:22.955Z,5.83
2019-04-07T08:55:50.059Z,5.53
2019-04-07T08:58:25.117Z,5.00
2019-04-07T09:00:49.290Z,5.87
2019-04-07T09:03:16.389Z,6.17
2019-04-07T09:05:43.203Z,5.70
2019-04-07T09:08:09.036Z,4.90
2019-04-07T09:10:42.982Z,4.47
2019-04-07T09:13:10.137Z,4.23
2019-04-07T09:15:45.297Z,4.20
2019-04-07T09:18:17.952Z,4.60
2019-04-07T09:20:48.479Z,3.80
2019-04-07T09:23:28.326Z,4.40
2019-04-07T09:25:57.245Z,3.80
2019-04-07T09:28:25.050Z,4.13
2019-04-07T09:31:09.185Z,4.97
2019-04-07T09:33:53.961Z,4.47
2019-04-07T09:36:24.678Z,4.83
2019-04-07T09:38:52.525Z,3.80
2019-04-07T09:41:32.170Z,4.70
2019-04-07T09:44:03.911Z,3.63
2019-04-07T09:46:41.904Z,3.97
2019-04-07T09:49:24.767Z,3.53
2019-04-07T09:51:58.894Z,4.20
2019-04-07T09:54:26.663Z,4.03
2019-04-07T09:57:10.878Z,4.17
2019-04-07T09:59:48.579Z,4.47
2019-04-07T10:02:23.953Z,4.17
2019-04-07T10:04:51.783Z,4.23
2019-04-07T10:07:28.459Z,4.80
2019-04-07T10:10:08.389Z,3.33
2019-04-07T10:12:28.791Z,3.90
2019-04-07T10:15:04.449Z,4.03
2019-04-07T10:17:49.496Z,3.20
2019-04-07T10:20:23.139Z,3.67
2019-04-07T10:23:07.977Z,3.70
2019-04-07T10:25:39.210Z,3.73
2019-04-07T10:28:13.750Z,3.73
2019-04-07T10:30:44.623Z,4.30
2019-04-07T10:33:15.743Z,4.70
2019-04-07T10:35:59.993Z,3.70
2019-04-07T10:38:30.475Z,4.00
2019-04-07T10:41:07.340Z,4.30
2019-04-07T10:43:52.504Z,4.00
2019-04-07T10:46:20.435Z,3.53
2019-04-07T10:48:51.146Z,4.40
2019-04-07T10:51:19.686Z,3.17
2019-04-07T10:53:51.099Z,4.03
2019-04-07T10:56:25.489Z,3.90
2019-04-07T10:58:53.990Z,4.53
2019-04-07T11:01:25.539Z,3.40
2019-04-07T11:03:59.503Z,4.30
2019-04-07T11:06:42.109Z,4.30
2019-04-07T11:09:13.212Z,5.10
2019-04-07T11:11:41.212Z,4.07
2019-04-07T11:14:09.738Z,3.77
2019-04-07T11:16:52.567Z,4.13
2019-04-07T11:19:38.601Z,3.70
2019-04-07T11:22:10.520Z,3.53
2019-04-07T11:24:41.442Z,3.80
2019-04-07T11:27:15.173Z,3.87
2019-04-07T11:29:45.743Z,4.33
2019-04-07T11:32:32.336Z,4.13
2019-04-07T11:35:00.205Z,4.10
2019-04-07T11:37:33.827Z,4.27
2019-04-07T11:40:02.231Z,4.43
2019-04-07T11:42:30.649Z,4.80
2019-04-07T11:45:05.020Z,4.10
2019-04-07T11:47:38.582Z,3.80
2019-04-07T11:50:13.492Z,3.60
2019-04-07T11:52:50.530Z,4.40
2019-04-07T11:55:34.615Z,4.00
2019-04-07T11:58:26.018Z,4.00
2019-04-07T12:00:55.910Z,3.63
2019-04-07T12:03:29.940Z,3.47
2019-04-07T12:06:06.574Z,4.03
2019-04-07T12:08:40.504Z,5.07
2019-04-07T12:11:15.443Z,4.60
2019-04-07T12:13:46.762Z,4.20
2019-04-07T12:16:24.784Z,4.50
2019-04-07T12:19:05.565Z,4.57
2019-04-07T12:21:39.125Z,4.67
2019-04-07T12:24:09.446Z,4.47
2019-04-07T12:26:54.988Z,4.07
2019-04-07T12:29:35.279Z,4.03
2019-04-07T12:32:05.844Z,4.13
2019-04-07T12:34:50.897Z,4.17
2019-04-07T12:37:39.245Z,3.60
2019-04-07T12:40:07.593Z,3.60
2019-04-07T12:42:54.488Z,4.00
2019-04-07T12:45:38.771Z,3.80
2019-04-07T12:48:06.573Z,4.47
2019-04-07T12:50:35.485Z,3.63
2019-04-07T12:53:04.866Z,4.03
2019-04-07T12:55:56.001Z,4.20
2019-04-07T12:58:25.533Z,4.07
2019-04-07T13:00:59.924Z,4.27
2019-04-07T13:03:44.068Z,4.03
2019-04-07T13:06:14.655Z,4.60
2019-04-07T13:08:45.088Z,3.90
2019-04-07T13:11:26.552Z,3.70
2019-04-07T13:13:54.542Z,4.10
2019-04-07T13:16:26.330Z,4.20
2019-04-07T13:18:57.309Z,3.60
2019-04-07T13:21:30.853Z,3.60
2019-04-07T13:24:03.769Z,3.60
2019-04-07T13:26:37.435Z,4.10
2019-04-07T13:29:05.365Z,3.73
2019-04-07T13:31:33.190Z,3.80
2019-04-07T13:34:18.011Z,3.83
2019-04-07T13:36:46.317Z,4.03
2019-04-07T13:39:19.884Z,4.43
2019-04-07T13:42:05.848Z,4.10
2019-04-07T13:44:49.644Z,3.67
2019-04-07T13:47:34.111Z,4.07
2019-04-07T13:50:02.611Z,3.80
2019-04-07T13:52:36.881Z,4.00
2019-04-07T13:55:14.147Z,3.60
2019-04-07T13:57:57.743Z,3.83
2019-04-07T14:00:26.399Z,3.70
2019-04-07T14:03:11.297Z,4.70
2019-04-07T14:05:43.020Z,4.50
2019-04-07T14:08:11.401Z,3.43
2019-04-07T14:10:57.868Z,4.50
2019-04-07T14:13:41.882Z,4.77
2019-04-07T14:16:12.816Z,4.13
2019-04-07T14:18:43.763Z,4.00
2019-04-07T14:21:16.788Z,4.97
2019-04-07T14:23:44.717Z,5.27
2019-04-07T14:26:15.737Z,4.30
2019-04-07T14:28:50.081Z,4.43
2019-04-07T14:31:23.615Z,4.63
2019-04-07T14:34:07.997Z,4.23
2019-04-07T14:36:54.611Z,4.77
2019-04-07T14:39:22.412Z,4.10
2019-04-07T14:42:01.009Z,4.23
2019-04-07T14:44:29.283Z,3.97
2019-04-07T14:47:03.298Z,3.50
2019-04-07T14:49:39.837Z,3.93
2019-04-07T14:52:07.675Z,3.73
2019-04-07T14:54:38.595Z,3.80
2019-04-07T14:57:10.390Z,3.90
2019-04-07T14:59:47.383Z,4.20
2019-04-07T15:02:15.595Z,4.17
2019-04-07T15:05:01.296Z,3.90
2019-04-07T15:07:34.789Z,4.10
2019-04-07T15:10:12.387Z,3.90
2019-04-07T15:12:41.408Z,4.07
2019-04-07T15:15:11.344Z,4.30
2019-04-07T15:17:36.954Z,4.10
2019-04-07T15:20:07.469Z,3.97
2019-04-07T15:22:33.535Z,4.80
2019-04-07T15:25:00.136Z,4.80
2019-04-07T15:27:27.212Z,4.57
2019-04-07T15:29:53.137Z,3.80
2019-04-07T15:32:21.184Z,5.37
2019-04-07T15:34:46.870Z,4.77
2019-04-07T15:37:13.152Z,5.10
2019-04-07T15:39:39.618Z,4.77
2019-04-07T15:42:07.980Z,4.43
2019-04-07T15:44:33.558Z,4.77
2019-04-07T15:46:59.404Z,5.00
2019-04-07T15:49:27.984Z,4.30
2019-04-07T15:51:53.990Z,4.93
2019-04-07T15:54:22.982Z,5.83
2019-04-07T15:56:49.240Z,4.60
2019-04-07T15:59:17.601Z,5.20
2019-04-07T16:01:44.080Z,5.13
2019-04-07T16:04:09.967Z,4.83
2019-04-07T16:06:37.006Z,4.60
2019-04-07T16:09:10.719Z,4.40
2019-04-07T16:11:33.834Z,4.90
2019-04-07T16:13:59.735Z,4.53
2019-04-07T16:16:28.448Z,5.00
2019-04-07T16:18:53.401Z,6.93
2019-04-07T16:21:19.521Z,4.90
2019-04-07T16:23:49.017Z,4.27
2019-04-07T16:26:13.275Z,4.10
2019-04-07T16:28:43.253Z,4.50
2019-04-07T16:31:07.724Z,4.10
2019-04-07T16:33:35.971Z,4.60
2019-04-07T16:36:02.098Z,4.50
2019-04-07T16:38:29.546Z,4.23
2019-04-07T16:40:56.011Z,5.00
2019-04-07T16:43:22.119Z,4.37
2019-04-07T16:45:48.564Z,4.23
2019-04-07T16:48:14.401Z,4.33
2019-04-07T16:50:40.301Z,4.23
2019-04-07T16:53:07.823Z,4.60
2019-04-07T16:55:37.238Z,5.57
2019-04-07T16:58:03.903Z,4.57
2019-04-07T17:00:29.859Z,3.70
2019-04-07T17:02:55.838Z,3.90
2019-04-07T17:05:24.329Z,3.50
2019-04-07T17:07:50.817Z,4.10
2019-04-07T17:10:16.819Z,3.80
2019-04-07T17:12:42.803Z,4.23
2019-04-07T17:15:08.830Z,4.57
2019-04-07T17:17:35.683Z,3.90
2019-04-07T17:20:06.834Z,4.80
2019-04-07T17:22:33.688Z,5.00
2019-04-07T17:25:02.631Z,4.43
2019-04-07T17:27:27.600Z,4.50
2019-04-07T17:29:55.297Z,4.33
2019-04-07T17:32:21.849Z,4.10
2019-04-07T17:34:47.889Z,3.87
2019-04-07T17:37:14.058Z,4.40
2019-04-07T17:39:51.428Z,4.13
2019-04-07T17:42:19.745Z,4.20
2019-04-07T17:44:49.194Z,4.10
2019-04-07T17:47:23.351Z,4.80
2019-04-07T17:49:57.617Z,3.83
2019-04-07T17:52:30.386Z,3.60
2019-04-07T17:55:04.261Z,4.70
2019-04-07T17:57:44.990Z,4.00
2019-04-07T18:00:28.040Z,4.77
2019-04-07T18:03:04.845Z,4.00
2019-04-07T18:05:40.721Z,4.43
2019-04-07T18:08:17.884Z,4.37
2019-04-07T18:10:59.757Z,5.30
2019-04-07T18:13:44.072Z,4.50
2019-04-07T18:16:09.710Z,5.10
2019-04-07T18:18:38.805Z,5.07
2019-04-07T18:21:13.196Z,4.80
2019-04-07T18:23:58.747Z,4.93
2019-04-07T18:26:40.286Z,5.07
2019-04-07T18:29:13.602Z,5.90
2019-04-07T18:31:50.907Z,5.50
2019-04-07T18:34:23.853Z,6.60
2019-04-07T18:36:49.202Z,6.57
2019-04-07T18:39:26.207Z,5.03
2019-04-07T18:42:12.589Z,6.37
2019-04-07T18:44:41.309Z,5.77
2019-04-07T18:47:15.420Z,5.33
2019-04-07T18:49:55.130Z,5.17
2019-04-07T18:52:25.723Z,6.03
2019-04-07T18:54:55.681Z,6.60
2019-04-07T18:57:29.468Z,6.77
2019-04-07T19:00:15.084Z,7.03
2019-04-07T19:02:46.465Z,5.87
2019-04-07T19:05:34.226Z,6.53
2019-04-07T19:08:04.683Z,7.57
2019-04-07T19:10:38.947Z,7.00
2019-04-07T19:13:27.264Z,6.30
2019-04-07T19:15:55.443Z,7.23
2019-04-07T19:18:27.110Z,7.47
2019-04-07T19:21:13.823Z,6.03
2019-04-07T19:23:41.775Z,8.30
2019-04-07T19:26:18.060Z,7.20
2019-04-07T19:28:47.686Z,7.10
2019-04-07T19:31:19.471Z,6.53
2019-04-07T19:34:03.384Z,6.87
2019-04-07T19:36:44.372Z,6.63
2019-04-07T19:39:26.993Z,6.70
2019-04-07T19:42:00.940Z,7.07
2019-04-07T19:44:49.707Z,8.07
2019-04-07T19:47:31.270Z,9.00
2019-04-07T19:50:10.166Z,8.63
2019-04-07T19:52:47.674Z,9.27
2019-04-07T19:55:22.628Z,9.27
2019-04-07T19:57:58.010Z,8.20
2019-04-07T20:00:31.896Z,8.27
2019-04-07T20:03:16.077Z,7.67
2019-04-07T20:05:43.919Z,8.47
2019-04-07T20:08:32.442Z,7.77
2019-04-07T20:11:04.122Z,7.50
2019-04-07T20:13:40.629Z,7.97
2019-04-07T20:16:24.187Z,7.30
2019-04-07T20:18:59.387Z,7.87
2019-04-07T20:21:38.220Z,9.00
2019-04-07T20:24:09.291Z,11.00
2019-04-07T20:26:40.518Z,8.20
2019-04-07T20:29:12.018Z,8.17
2019-04-07T20:31:53.366Z,7.87
2019-04-07T20:34:40.135Z,7.20
2019-04-07T20:37:12.716Z,8.37
2019-04-07T20:39:43.663Z,7.63
2019-04-07T20:42:15.887Z,7.27
2019-04-07T20:44:41.154Z,7.90
2019-04-07T20:47:08.887Z,7.33
2019-04-07T20:49:41.154Z,7.30
2019-04-07T20:52:14.212Z,7.93
2019-04-07T20:54:48.738Z,8.20
2019-04-07T20:57:23.758Z,7.87
2019-04-07T21:00:06.955Z,7.03
2019-04-07T21:02:36.316Z,7.67
2019-04-07T21:05:08.423Z,6.77
2019-04-07T21:07:39.667Z,9.37
2019-04-07T21:10:11.191Z,8.67
2019-04-07T21:12:51.218Z,8.47
2019-04-07T21:15:26.032Z,8.70
2019-04-07T21:17:51.187Z,8.10
2019-04-07T21:20:30.991Z,9.47
2019-04-07T21:22:59.542Z,9.40
2019-04-07T21:25:42.327Z,9.33
2019-04-07T21:28:10.546Z,13.67
2019-04-07T21:30:43.015Z,12.70
2019-04-07T21:33:28.208Z,12.60
2019-04-07T21:36:04.336Z,11.47
2019-04-07T21:38:37.776Z,8.13
2019-04-07T21:41:06.087Z,10.03
2019-04-07T21:43:42.604Z,8.37
2019-04-07T21:46:13.366Z,9.33
2019-04-07T21:48:50.730Z,9.40
2019-04-07T21:51:21.599Z,10.83
2019-04-07T21:53:55.226Z,12.33
2019-04-07T21:56:47.780Z,10.73
2019-04-07T21:59:18.999Z,10.20
2019-04-07T22:01:53.760Z,9.80
2019-04-07T22:04:34.075Z,8.60
2019-04-07T22:07:18.245Z,7.87
2019-04-07T22:09:49.403Z,8.67
2019-04-07T22:12:14.523Z,8.50
2019-04-07T22:14:42.896Z,8.87
2019-04-07T22:17:08.338Z,9.40
2019-04-07T22:19:34.181Z,8.00
2019-04-07T22:22:00.364Z,8.20
2019-04-07T22:24:26.378Z,9.20
2019-04-07T22:26:52.930Z,8.60
2019-04-07T22:29:18.972Z,8.53
2019-04-07T22:31:49.730Z,8.03
2019-04-07T22:34:16.421Z,9.03
2019-04-07T22:36:45.490Z,9.00
2019-04-07T22:39:10.228Z,8.13
2019-04-07T22:41:37.002Z,9.30
2019-04-07T22:44:03.937Z,9.30
2019-04-07T22:46:29.765Z,8.50
2019-04-07T22:48:58.343Z,8.60
2019-04-07T22:51:23.360Z,8.00
2019-04-07T22:53:49.649Z,8.23
2019-04-07T22:56:16.077Z,8.80
2019-04-07T22:58:42.320Z,9.23
2019-04-07T23:01:09.024Z,8.33
2019-04-07T23:03:34.948Z,10.03
2019-04-07T23:06:01.044Z,9.20
2019-04-07T23:08:26.931Z,9.53
2019-04-07T23:10:52.846Z,9.70
2019-04-07T23:13:19.434Z,9.43
2019-04-07T23:15:46.442Z,8.60
2019-04-07T23:18:13.703Z,8.17
2019-04-07T23:20:39.732Z,8.00
2019-04-07T23:23:05.619Z,8.70
2019-04-07T23:25:32.281Z,8.33
2019-04-07T23:27:58.460Z,8.60
2019-04-07T23:30:26.379Z,9.30
2019-04-07T23:32:52.333Z,7.83
2019-04-07T23:35:18.170Z,8.20
2019-04-07T23:37:44.043Z,9.17
2019-04-07T23:40:10.659Z,8.40
2019-04-07T23:42:36.581Z,8.77
2019-04-07T23:45:06.597Z,8.30
2019-04-07T23:47:32.461Z,8.03
2019-04-07T23:49:58.686Z,8.37
2019-04-07T23:52:25.132Z,7.90
2019-04-07T23:54:51.027Z,9.47
2019-04-07T23:57:17.725Z,9.27
2019-04-07T23:59:44.305Z,8.20
